Time;durP1;ratioP1;P1;durP2;ratioP2;P2;SDS_P1;SDS_P2;PMS_P1;PMS_P2;Temp;Humidity;BMP_temperature;BMP_pressure;BME280_temperature;BME280_humidity;BME280_pressure;Samples;Min_cycle;Max_cycle;Signal;HPM_P1;HPM_P2
2022/06/20 00:00:53;;;;;;;;;;;;;;;;;;5128467;27;1902;-76
2022/06/20 00:03:35;;;;;;;;;;;;;;;;;;5113038;27;1198;-78
2022/06/20 00:06:01;;;;;;;;;;;;;;;;;;5126277;27;1127;-78
2022/06/20 00:08:26;;;;;;;;;;;;;;;;;;5090380;27;1208;-78
2022/06/20 00:10:51;;;;;;;;;;;;;;;;;;5089685;27;1334;-76
2022/06/20 00:13:23;;;;;;;;;;;;;;;;;;5109344;27;1258;-76
2022/06/20 00:15:50;;;;;;;;;;;;;;;;;;5108929;27;1169;-76
2022/06/20 00:18:16;;;;;;;;;;;;;;;;;;5106871;27;1273;-76
2022/06/20 00:20:41;;;;;;;;;;;;;;;;;;5107083;27;1947;-76
2022/06/20 00:23:07;;;;;;;;;;;;;;;;;;5130104;27;1218;-76
2022/06/20 00:25:34;;;;;;;;;;;;;;;;;;5142805;27;1135;-77
2022/06/20 00:27:59;;;;;;;;;;;;;;;;;;5142627;27;1139;-77
2022/06/20 00:30:26;;;;;;;;;;;;;;;;;;5109431;27;1258;-75
2022/06/20 00:32:51;;;;;;;;;;;;;;;;;;5109400;27;1229;-76
2022/06/20 00:35:16;;;;;;;;;;;;;;;;;;5112399;27;1211;-76
2022/06/20 00:37:42;;;;;;;;;;;;;;;;;;5145716;27;1055;-77
2022/06/20 00:40:26;;;;;;;;;;;;;;;;;;5130260;27;1877;-78
2022/06/20 00:42:52;;;;;;;;;;;;;;;;;;5108785;27;1202;-78
2022/06/20 00:45:18;;;;;;;;;;;;;;;;;;5128490;27;1233;-78
2022/06/20 00:47:45;;;;;;;;;;;;;;;;;;5108660;27;1451;-77
2022/06/20 00:50:18;;;;;;;;;;;;;;;;;;5138856;27;1179;-78
2022/06/20 00:52:46;;;;;;;;;;;;;;;;;;5129645;27;1107;-77
2022/06/20 00:55:30;;;;;;;;;;;;;;;;;;5111002;27;1301;-77
2022/06/20 00:57:55;;;;;;;;;;;;;;;;;;5112230;27;1214;-76
2022/06/20 01:00:24;;;;;;;;;;;;;;;;;;5112893;27;1968;-76
2022/06/20 01:02:53;;;;;;;;;;;;;;;;;;5123303;27;1301;-77
2022/06/20 01:05:21;;;;;;;;;;;;;;;;;;5149965;27;1134;-77
2022/06/20 01:07:59;;;;;;;;;;;;;;;;;;5130824;27;1177;-77
2022/06/20 01:10:26;;;;;;;;;;;;;;;;;;5149869;27;1162;-77
2022/06/20 01:13:02;;;;;;;;;;;;;;;;;;5150026;27;1197;-78
2022/06/20 01:15:34;;;;;;;;;;;;;;;;;;5139424;27;1205;-78
2022/06/20 01:17:59;;;;;;;;;;;;;;;;;;5131646;27;1142;-78
2022/06/20 01:20:26;;;;;;;;;;;;;;;;;;5119319;27;1890;-78
2022/06/20 01:23:03;;;;;;;;;;;;;;;;;;5116455;27;1264;-78
2022/06/20 01:25:34;;;;;;;;;;;;;;;;;;5108517;27;1189;-78
2022/06/20 01:28:00;;;;;;;;;;;;;;;;;;5114115;27;1158;-78
2022/06/20 01:30:30;;;;;;;;;;;;;;;;;;5122702;27;1268;-78
2022/06/20 01:32:57;;;;;;;;;;;;;;;;;;5113634;27;1285;-78
2022/06/20 01:38:09;;;;;;;;;;;;;;;;;;5111697;27;1317;-78
2022/06/20 01:40:35;;;;;;;;;;;;;;;;;;5125816;27;1897;-78
2022/06/20 01:43:00;;;;;;;;;;;;;;;;;;5097974;27;1152;-78
2022/06/20 01:48:12;;;;;;;;;;;;;;;;;;5110583;27;992;-78
2022/06/20 01:50:39;;;;;;;;;;;;;;;;;;5115299;27;1170;-78
2022/06/20 01:53:06;;;;;;;;;;;;;;;;;;5146326;27;1142;-78
2022/06/20 01:55:36;;;;;;;;;;;;;;;;;;5128106;27;1342;-77
2022/06/20 01:58:05;;;;;;;;;;;;;;;;;;5127365;27;1195;-78
2022/06/20 02:00:31;;;;;;;;;;;;;;;;;;5126493;27;1902;-78
2022/06/20 02:02:59;;;;;;;;;;;;;;;;;;5123655;27;1021;-78
2022/06/20 02:05:26;;;;;;;;;;;;;;;;;;5106618;27;1226;-78
2022/06/20 02:07:53;;;;;;;;;;;;;;;;;;5105414;27;1300;-78
2022/06/20 02:10:21;;;;;;;;;;;;;;;;;;5108102;27;1194;-78
2022/06/20 02:12:48;;;;;;;;;;;;;;;;;;5117809;27;1219;-78
2022/06/20 02:15:18;;;;;;;;;;;;;;;;;;5127221;27;1401;-78
2022/06/20 02:17:46;;;;;;;;;;;;;;;;;;5110858;27;968;-78
2022/06/20 02:20:16;;;;;;;;;;;;;;;;;;5108136;28;1889;-78
2022/06/20 02:22:42;;;;;;;;;;;;;;;;;;5125357;27;1134;-78
2022/06/20 02:25:10;;;;;;;;;;;;;;;;;;5126563;27;1123;-78
2022/06/20 02:27:45;;;;;;;;;;;;;;;;;;5107407;27;1333;-78
2022/06/20 02:30:11;;;;;;;;;;;;;;;;;;5108101;27;1169;-78
2022/06/20 02:32:44;;;;;;;;;;;;;;;;;;5108478;27;1396;-78
2022/06/20 02:35:11;;;;;;;;;;;;;;;;;;5140776;27;1119;-78
2022/06/20 02:37:38;;;;;;;;;;;;;;;;;;5147268;27;1170;-78
2022/06/20 02:40:06;;;;;;;;;;;;;;;;;;5126551;27;1954;-78
2022/06/20 02:42:33;;;;;;;;;;;;;;;;;;5128578;27;1386;-78
2022/06/20 02:45:00;;;;;;;;;;;;;;;;;;5118477;27;1261;-78
2022/06/20 02:47:26;;;;;;;;;;;;;;;;;;5113932;27;1194;-78
2022/06/20 02:49:54;;;;;;;;;;;;;;;;;;5111526;27;1333;-78
2022/06/20 02:52:23;;;;;;;;;;;;;;;;;;5119046;27;1201;-78
2022/06/20 02:54:50;;;;;;;;;;;;;;;;;;5108910;27;1358;-78
2022/06/20 02:57:18;;;;;;;;;;;;;;;;;;5129631;27;1067;-78
2022/06/20 02:59:47;;;;;;;;;;;;;;;;;;5129188;27;1966;-78
2022/06/20 03:02:13;;;;;;;;;;;;;;;;;;5111501;27;1305;-78
2022/06/20 03:04:44;;;;;;;;;;;;;;;;;;5108546;27;1280;-77
2022/06/20 03:07:12;;;;;;;;;;;;;;;;;;5111624;27;1174;-78
2022/06/20 03:09:49;;;;;;;;;;;;;;;;;;5144122;27;1175;-78
2022/06/20 03:12:15;;;;;;;;;;;;;;;;;;5131397;27;1186;-78
2022/06/20 03:14:43;;;;;;;;;;;;;;;;;;5113691;27;1349;-78
2022/06/20 03:17:09;;;;;;;;;;;;;;;;;;5119524;27;1393;-78
2022/06/20 03:19:41;;;;;;;;;;;;;;;;;;5112362;27;1889;-78
2022/06/20 03:22:12;;;;;;;;;;;;;;;;;;5125038;27;1425;-78
2022/06/20 03:24:43;;;;;;;;;;;;;;;;;;5117418;27;1308;-78
2022/06/20 03:27:20;;;;;;;;;;;;;;;;;;5088899;27;1310;-78
2022/06/20 03:29:46;;;;;;;;;;;;;;;;;;5111703;27;1281;-78
2022/06/20 03:32:11;;;;;;;;;;;;;;;;;;5113665;27;1389;-78
2022/06/20 03:34:37;;;;;;;;;;;;;;;;;;5145613;27;1170;-76
2022/06/20 03:37:03;;;;;;;;;;;;;;;;;;5129936;27;1131;-77
2022/06/20 03:39:28;;;;;;;;;;;;;;;;;;5129930;27;1964;-77
2022/06/20 03:41:53;;;;;;;;;;;;;;;;;;5138271;27;1166;-77
2022/06/20 03:44:29;;;;;;;;;;;;;;;;;;5109238;27;1218;-77
2022/06/20 03:46:57;;;;;;;;;;;;;;;;;;5129003;27;1209;-77
2022/06/20 03:49:26;;;;;;;;;;;;;;;;;;5111893;27;1292;-77
2022/06/20 03:52:01;;;;;;;;;;;;;;;;;;5128785;27;1163;-77
2022/06/20 03:54:29;;;;;;;;;;;;;;;;;;5144147;27;1150;-77
2022/06/20 03:57:00;;;;;;;;;;;;;;;;;;5119699;27;1198;-77
2022/06/20 03:59:46;;;;;;;;;;;;;;;;;;5131439;27;1913;-78
2022/06/20 04:02:11;;;;;;;;;;;;;;;;;;5119502;27;1257;-77
2022/06/20 04:04:41;;;;;;;;;;;;;;;;;;5106206;27;1345;-77
2022/06/20 04:07:14;;;;;;;;;;;;;;;;;;5116531;27;1272;-78
2022/06/20 04:12:51;;;;;;;;;;;;;;;;;;5150246;27;1042;-77
2022/06/20 04:15:20;;;;;;;;;;;;;;;;;;5131045;27;1202;-77
2022/06/20 04:20:49;;;;;;;;;;;;;;;;;;5126738;27;1925;-78
2022/06/20 04:23:21;;;;;;;;;;;;;;;;;;5110176;27;1286;-77
2022/06/20 04:25:52;;;;;;;;;;;;;;;;;;5127186;27;1380;-77
2022/06/20 04:28:22;;;;;;;;;;;;;;;;;;5123530;27;1312;-78
2022/06/20 04:30:55;;;;;;;;;;;;;;;;;;5108383;27;1280;-77
2022/06/20 04:33:25;;;;;;;;;;;;;;;;;;5116870;27;1310;-77
2022/06/20 04:35:59;;;;;;;;;;;;;;;;;;5106974;27;1321;-77
2022/06/20 04:38:30;;;;;;;;;;;;;;;;;;5108167;27;1345;-77
2022/06/20 04:41:13;;;;;;;;;;;;;;;;;;5134932;27;1882;-80
2022/06/20 04:43:41;;;;;;;;;;;;;;;;;;5132244;27;1112;-81
2022/06/20 04:46:19;;;;;;;;;;;;;;;;;;5123892;27;1274;-76
2022/06/20 04:48:50;;;;;;;;;;;;;;;;;;5125705;27;1165;-75
2022/06/20 04:51:24;;;;;;;;;;;;;;;;;;5117741;27;1221;-76
2022/06/20 04:53:52;;;;;;;;;;;;;;;;;;5106051;27;1259;-75
2022/06/20 04:56:26;;;;;;;;;;;;;;;;;;5089161;27;1203;-75
2022/06/20 04:58:54;;;;;;;;;;;;;;;;;;5132507;27;943;-76
2022/06/20 05:01:20;;;;;;;;;;;;;;;;;;5131073;27;1938;-76
2022/06/20 05:04:07;;;;;;;;;;;;;;;;;;5104156;27;1231;-76
2022/06/20 05:06:35;;;;;;;;;;;;;;;;;;5109866;27;1298;-77
2022/06/20 05:09:04;;;;;;;;;;;;;;;;;;5107699;27;1301;-75
2022/06/20 05:11:38;;;;;;;;;;;;;;;;;;5127621;27;1186;-76
2022/06/20 05:14:09;;;;;;;;;;;;;;;;;;5124085;27;1234;-76
2022/06/20 05:16:37;;;;;;;;;;;;;;;;;;5125973;27;1108;-79
2022/06/20 05:19:08;;;;;;;;;;;;;;;;;;5102322;27;1416;-76
2022/06/20 05:21:39;;;;;;;;;;;;;;;;;;5113185;27;1953;-76
2022/06/20 05:24:12;;;;;;;;;;;;;;;;;;5119913;27;1136;-77
2022/06/20 05:26:39;;;;;;;;;;;;;;;;;;5129044;27;1196;-77
2022/06/20 05:29:09;;;;;;;;;;;;;;;;;;5135969;27;1174;-77
2022/06/20 05:31:37;;;;;;;;;;;;;;;;;;5131532;27;1364;-76
2022/06/20 05:34:16;;;;;;;;;;;;;;;;;;5126068;27;1631;-76
2022/06/20 05:36:54;;;;;;;;;;;;;;;;;;5148467;27;1166;-76
2022/06/20 05:39:19;;;;;;;;;;;;;;;;;;5128147;27;1151;-76
2022/06/20 05:41:45;;;;;;;;;;;;;;;;;;5132172;27;1961;-77
2022/06/20 05:44:13;;;;;;;;;;;;;;;;;;5136740;27;1163;-76
2022/06/20 05:46:44;;;;;;;;;;;;;;;;;;5129207;27;1267;-77
2022/06/20 05:49:25;;;;;;;;;;;;;;;;;;5123821;27;1165;-76
2022/06/20 05:51:58;;;;;;;;;;;;;;;;;;5129347;27;1300;-77
2022/06/20 05:54:26;;;;;;;;;;;;;;;;;;5108770;27;1335;-77
2022/06/20 05:56:57;;;;;;;;;;;;;;;;;;5107184;27;1286;-77
2022/06/20 05:59:41;;;;;;;;;;;;;;;;;;5107238;27;1151;-77
2022/06/20 06:02:14;;;;;;;;;;;;;;;;;;5106479;27;1269;-77
2022/06/20 06:04:44;;;;;;;;;;;;;;;;;;5119784;27;1258;-77
2022/06/20 06:07:13;;;;;;;;;;;;;;;;;;5127105;27;1194;-77
2022/06/20 06:09:39;;;;;;;;;;;;;;;;;;5145668;27;1234;-77
2022/06/20 06:12:08;;;;;;;;;;;;;;;;;;5113590;27;1166;-78
2022/06/20 06:14:44;;;;;;;;;;;;;;;;;;5126324;27;1463;-78
2022/06/20 06:17:38;;;;;;;;;;;;;;;;;;5126006;27;1171;-77
2022/06/20 06:20:10;;;;;;;;;;;;;;;;;;5111563;27;1945;-77
2022/06/20 06:22:41;;;;;;;;;;;;;;;;;;5112090;27;1254;-77
2022/06/20 06:25:17;;;;;;;;;;;;;;;;;;5124997;27;1355;-77
2022/06/20 06:27:44;;;;;;;;;;;;;;;;;;5140445;27;1219;-77
2022/06/20 06:30:29;;;;;;;;;;;;;;;;;;5107499;27;1274;-79
2022/06/20 06:33:04;;;;;;;;;;;;;;;;;;5129931;27;1139;-78
2022/06/20 06:35:50;;;;;;;;;;;;;;;;;;5129494;27;1264;-76
2022/06/20 06:38:26;;;;;;;;;;;;;;;;;;5114932;27;1291;-78
2022/06/20 06:40:53;;;;;;;;;;;;;;;;;;5144752;27;1917;-78
2022/06/20 06:43:40;;;;;;;;;;;;;;;;;;5126644;27;1268;-78
2022/06/20 06:46:17;;;;;;;;;;;;;;;;;;5126405;27;1440;-77
2022/06/20 06:49:03;;;;;;;;;;;;;;;;;;5147468;27;1182;-76
2022/06/20 06:51:34;;;;;;;;;;;;;;;;;;5129532;27;1325;-76
2022/06/20 06:54:12;;;;;;;;;;;;;;;;;;5134075;27;1150;-78
2022/06/20 06:56:40;;;;;;;;;;;;;;;;;;5127504;27;1187;-78
2022/06/20 06:59:13;;;;;;;;;;;;;;;;;;5109661;27;1175;-77
2022/06/20 07:01:40;;;;;;;;;;;;;;;;;;5110845;27;1910;-76
2022/06/20 07:04:14;;;;;;;;;;;;;;;;;;5108792;27;1255;-77
2022/06/20 07:06:45;;;;;;;;;;;;;;;;;;5127452;27;1164;-76
2022/06/20 07:09:32;;;;;;;;;;;;;;;;;;5108264;27;1214;-77
2022/06/20 07:12:12;;;;;;;;;;;;;;;;;;5109739;27;1314;-76
2022/06/20 07:14:41;;;;;;;;;;;;;;;;;;5128626;27;1148;-76
2022/06/20 07:17:11;;;;;;;;;;;;;;;;;;5127520;27;1083;-77
2022/06/20 07:19:42;;;;;;;;;;;;;;;;;;5106342;27;1894;-76
2022/06/20 07:22:09;;;;;;;;;;;;;;;;;;5107737;27;1167;-77
2022/06/20 07:24:35;;;;;;;;;;;;;;;;;;5109624;27;1241;-76
2022/06/20 07:27:20;;;;;;;;;;;;;;;;;;5108585;27;1214;-76
2022/06/20 07:29:50;;;;;;;;;;;;;;;;;;5108319;27;1287;-76
2022/06/20 07:32:38;;;;;;;;;;;;;;;;;;5107226;27;1183;-77
2022/06/20 07:35:13;;;;;;;;;;;;;;;;;;5099351;27;1301;-77
2022/06/20 07:37:46;;;;;;;;;;;;;;;;;;5108385;27;1281;-78
2022/06/20 07:40:11;;;;;;;;;;;;;;;;;;5105116;27;2040;-77
2022/06/20 07:42:45;;;;;;;;;;;;;;;;;;5111222;27;1203;-77
2022/06/20 07:45:10;;;;;;;;;;;;;;;;;;5127382;27;1291;-79
2022/06/20 07:47:44;;;;;;;;;;;;;;;;;;5129416;27;1171;-78
2022/06/20 07:50:12;;;;;;;;;;;;;;;;;;5114675;27;1135;-78
2022/06/20 07:52:40;;;;;;;;;;;;;;;;;;5131715;27;1317;-77
2022/06/20 07:55:12;;;;;;;;;;;;;;;;;;5130410;27;1261;-76
2022/06/20 07:57:43;;;;;;;;;;;;;;;;;;5147293;27;1130;-77
2022/06/20 08:00:13;;;;;;;;;;;;;;;;;;5108452;27;1905;-78
2022/06/20 08:02:41;;;;;;;;;;;;;;;;;;5107520;27;1249;-78
2022/06/20 08:05:16;;;;;;;;;;;;;;;;;;5107325;27;1171;-80
2022/06/20 08:07:46;;;;;;;;;;;;;;;;;;5110070;27;1187;-77
2022/06/20 08:10:26;;;;;;;;;;;;;;;;;;5108731;27;1226;-79
2022/06/20 08:12:57;;;;;;;;;;;;;;;;;;5109968;27;1321;-79
2022/06/20 08:15:29;;;;;;;;;;;;;;;;;;5108408;27;1347;-78
2022/06/20 08:17:54;;;;;;;;;;;;;;;;;;5107865;27;1313;-78
2022/06/20 08:20:21;;;;;;;;;;;;;;;;;;5118526;27;1925;-78
2022/06/20 08:22:53;;;;;;;;;;;;;;;;;;5130150;27;1256;-78
2022/06/20 08:25:21;;;;;;;;;;;;;;;;;;5128562;27;1341;-78
2022/06/20 08:27:51;;;;;;;;;;;;;;;;;;5130789;27;1210;-77
2022/06/20 08:30:20;;;;;;;;;;;;;;;;;;5127677;27;1280;-78
2022/06/20 08:32:55;;;;;;;;;;;;;;;;;;5127841;27;1213;-79
2022/06/20 08:35:39;;;;;;;;;;;;;;;;;;5125341;27;1288;-77
2022/06/20 08:38:11;;;;;;;;;;;;;;;;;;5148002;27;1151;-79
2022/06/20 08:40:36;;;;;;;;;;;;;;;;;;5127136;27;1897;-78
2022/06/20 08:43:01;;;;;;;;;;;;;;;;;;5128288;27;1194;-78
2022/06/20 08:45:30;;;;;;;;;;;;;;;;;;5119133;27;1187;-78
2022/06/20 08:48:11;;;;;;;;;;;;;;;;;;5103595;28;1217;-79
2022/06/20 08:50:55;;;;;;;;;;;;;;;;;;5102188;28;1432;-78
2022/06/20 08:53:39;;;;;;;;;;;;;;;;;;5105292;28;1191;-77
2022/06/20 08:56:13;;;;;;;;;;;;;;;;;;5105930;28;1345;-77
2022/06/20 08:58:39;;;;;;;;;;;;;;;;;;5104987;28;1172;-77
2022/06/20 09:01:23;;;;;;;;;;;;;;;;;;5110251;27;1922;-78
2022/06/20 09:03:54;;;;;;;;;;;;;;;;;;5121829;27;1347;-77
2022/06/20 09:06:52;;;;;;;;;;;;;;;;;;5112824;27;1299;-77
2022/06/20 09:09:32;;;;;;;;;;;;;;;;;;5089286;28;1106;-77
2022/06/20 09:12:10;;;;;;;;;;;;;;;;;;5104162;28;1336;-77
2022/06/20 09:14:45;;;;;;;;;;;;;;;;;;5103622;28;1320;-77
2022/06/20 09:17:38;;;;;;;;;;;;;;;;;;5106462;28;1160;-78
2022/06/20 09:20:06;;;;;;;;;;;;;;;;;;5122611;27;1897;-78
2022/06/20 09:22:38;;;;;;;;;;;;;;;;;;5114828;27;1176;-80
2022/06/20 09:25:03;;;;;;;;;;;;;;;;;;5105895;28;1150;-79
2022/06/20 09:27:42;;;;;;;;;;;;;;;;;;5103755;28;1230;-78
2022/06/20 09:30:16;;;;;;;;;;;;;;;;;;5104760;28;1159;-78
2022/06/20 09:32:51;;;;;;;;;;;;;;;;;;5103299;28;1284;-78
2022/06/20 09:35:19;;;;;;;;;;;;;;;;;;5102543;28;1222;-78
2022/06/20 09:37:57;;;;;;;;;;;;;;;;;;5102535;28;1320;-77
2022/06/20 09:40:37;;;;;;;;;;;;;;;;;;5107260;27;1941;-77
2022/06/20 09:43:15;;;;;;;;;;;;;;;;;;5108703;27;1194;-78
2022/06/20 09:45:52;;;;;;;;;;;;;;;;;;5117343;27;1123;-78
2022/06/20 09:48:34;;;;;;;;;;;;;;;;;;5126383;27;1186;-78
2022/06/20 09:51:16;;;;;;;;;;;;;;;;;;5123890;27;1265;-79
2022/06/20 09:54:01;;;;;;;;;;;;;;;;;;5115145;27;1202;-78
2022/06/20 09:56:50;;;;;;;;;;;;;;;;;;5104539;27;1384;-78
2022/06/20 09:59:24;;;;;;;;;;;;;;;;;;5131212;27;1214;-79
2022/06/20 10:02:00;;;;;;;;;;;;;;;;;;5126357;27;1922;-79
2022/06/20 10:04:32;;;;;;;;;;;;;;;;;;5120285;27;1466;-78
2022/06/20 10:07:17;;;;;;;;;;;;;;;;;;5135734;27;1158;-78
2022/06/20 10:09:51;;;;;;;;;;;;;;;;;;5113954;27;1237;-79
2022/06/20 10:12:21;;;;;;;;;;;;;;;;;;5105930;27;1333;-81
2022/06/20 10:15:00;;;;;;;;;;;;;;;;;;5124928;27;1187;-82
2022/06/20 10:17:40;;;;;;;;;;;;;;;;;;5115237;27;1210;-82
2022/06/20 10:20:29;;;;;;;;;;;;;;;;;;5109488;27;1926;-86
2022/06/20 10:23:12;;;;;;;;;;;;;;;;;;5125376;27;1183;-85
2022/06/20 10:25:46;;;;;;;;;;;;;;;;;;5111180;27;1340;-85
2022/06/20 10:28:26;;;;;;;;;;;;;;;;;;5110032;27;1392;-82
2022/06/20 10:30:58;;;;;;;;;;;;;;;;;;5120496;27;1310;-82
2022/06/20 10:33:34;;;;;;;;;;;;;;;;;;5113160;27;1300;-82
2022/06/20 10:36:09;;;;;;;;;;;;;;;;;;5132628;27;1150;-80
2022/06/20 10:38:39;;;;;;;;;;;;;;;;;;5105241;27;1388;-83
2022/06/20 10:41:06;;;;;;;;;;;;;;;;;;5127917;27;1913;-81
2022/06/20 10:43:35;;;;;;;;;;;;;;;;;;5108822;27;1274;-79
2022/06/20 10:46:20;;;;;;;;;;;;;;;;;;5107236;27;1193;-80
2022/06/20 10:49:04;;;;;;;;;;;;;;;;;;5099513;27;1241;-80
2022/06/20 10:51:42;;;;;;;;;;;;;;;;;;5123665;27;1264;-80
2022/06/20 10:54:10;;;;;;;;;;;;;;;;;;5107717;27;1216;-81
2022/06/20 10:56:41;;;;;;;;;;;;;;;;;;5104746;27;1242;-79
2022/06/20 10:59:20;;;;;;;;;;;;;;;;;;5113054;27;1268;-79
2022/06/20 11:01:50;;;;;;;;;;;;;;;;;;5125289;27;1917;-79
2022/06/20 11:04:34;;;;;;;;;;;;;;;;;;5142522;27;1162;-79
2022/06/20 11:07:05;;;;;;;;;;;;;;;;;;5115178;27;1228;-79
2022/06/20 11:09:40;;;;;;;;;;;;;;;;;;5124000;27;1155;-78
2022/06/20 11:12:10;;;;;;;;;;;;;;;;;;5126292;27;1171;-80
2022/06/20 11:14:46;;;;;;;;;;;;;;;;;;5106665;27;1331;-80
2022/06/20 11:17:17;;;;;;;;;;;;;;;;;;5127888;27;1152;-79
2022/06/20 11:20:01;;;;;;;;;;;;;;;;;;5124568;27;1960;-80
2022/06/20 11:22:42;;;;;;;;;;;;;;;;;;5119122;27;1203;-81
2022/06/20 11:25:08;;;;;;;;;;;;;;;;;;5149551;27;1166;-77
2022/06/20 11:27:33;;;;;;;;;;;;;;;;;;5129489;27;1277;-77
2022/06/20 11:30:18;;;;;;;;;;;;;;;;;;5130452;27;1249;-75
2022/06/20 11:32:53;;;;;;;;;;;;;;;;;;5145591;27;1143;-76
2022/06/20 11:35:30;;;;;;;;;;;;;;;;;;5129447;27;1202;-76
2022/06/20 11:38:13;;;;;;;;;;;;;;;;;;5148069;27;1139;-76
2022/06/20 11:40:54;;;;;;;;;;;;;;;;;;5128063;27;1901;-78
2022/06/20 11:43:33;;;;;;;;;;;;;;;;;;5129825;27;1324;-76
2022/06/20 11:46:14;;;;;;;;;;;;;;;;;;5131244;27;1305;-76
2022/06/20 11:48:58;;;;;;;;;;;;;;;;;;5145146;27;1052;-76
2022/06/20 11:51:43;;;;;;;;;;;;;;;;;;5131204;27;1194;-76
2022/06/20 11:54:16;;;;;;;;;;;;;;;;;;5125906;27;1128;-76
2022/06/20 11:56:48;;;;;;;;;;;;;;;;;;5107676;27;1258;-76
2022/06/20 11:59:32;;;;;;;;;;;;;;;;;;5129078;27;1241;-77
2022/06/20 12:02:20;;;;;;;;;;;;;;;;;;5128808;27;1901;-75
2022/06/20 12:04:50;;;;;;;;;;;;;;;;;;5124934;27;1454;-76
2022/06/20 12:07:28;;;;;;;;;;;;;;;;;;5127381;27;1211;-76
2022/06/20 12:10:20;;;;;;;;;;;;;;;;;;5129114;27;1031;-76
2022/06/20 12:12:45;;;;;;;;;;;;;;;;;;5123149;27;1212;-75
2022/06/20 12:15:36;;;;;;;;;;;;;;;;;;5131086;27;1169;-76
2022/06/20 12:18:20;;;;;;;;;;;;;;;;;;5148237;27;1174;-75
2022/06/20 12:23:35;;;;;;;;;;;;;;;;;;5147103;27;1038;-76
2022/06/20 12:26:12;;;;;;;;;;;;;;;;;;5129502;27;1302;-76
2022/06/20 12:28:42;;;;;;;;;;;;;;;;;;5127674;27;1348;-77
2022/06/20 12:31:07;;;;;;;;;;;;;;;;;;5129199;27;1227;-76
2022/06/20 12:33:35;;;;;;;;;;;;;;;;;;5129025;27;1179;-77
2022/06/20 12:36:05;;;;;;;;;;;;;;;;;;5145453;27;1315;-77
2022/06/20 12:38:43;;;;;;;;;;;;;;;;;;5114977;27;1186;-76
2022/06/20 12:41:13;;;;;;;;;;;;;;;;;;5147663;27;1885;-75
2022/06/20 12:43:48;;;;;;;;;;;;;;;;;;5144035;27;1222;-76
2022/06/20 12:46:20;;;;;;;;;;;;;;;;;;5129396;27;1194;-77
2022/06/20 12:48:54;;;;;;;;;;;;;;;;;;5145094;27;1127;-76
2022/06/20 12:51:22;;;;;;;;;;;;;;;;;;5128619;27;1182;-77
2022/06/20 12:54:03;;;;;;;;;;;;;;;;;;5144578;27;1166;-77
2022/06/20 12:56:43;;;;;;;;;;;;;;;;;;5147878;27;1198;-77
2022/06/20 12:59:17;;;;;;;;;;;;;;;;;;5127043;27;1111;-77
2022/06/20 13:01:50;;;;;;;;;;;;;;;;;;5125885;27;1981;-78
2022/06/20 13:04:34;;;;;;;;;;;;;;;;;;5114776;27;1295;-78
2022/06/20 13:07:09;;;;;;;;;;;;;;;;;;5129053;27;1313;-79
2022/06/20 13:09:45;;;;;;;;;;;;;;;;;;5106584;27;1264;-79
2022/06/20 13:12:19;;;;;;;;;;;;;;;;;;5108488;27;1173;-79
2022/06/20 13:14:50;;;;;;;;;;;;;;;;;;5127140;27;1320;-77
2022/06/20 13:17:38;;;;;;;;;;;;;;;;;;5128106;27;1229;-77
2022/06/20 13:20:19;;;;;;;;;;;;;;;;;;5128982;27;1881;-78
2022/06/20 13:22:49;;;;;;;;;;;;;;;;;;5133371;27;1079;-77
2022/06/20 13:25:25;;;;;;;;;;;;;;;;;;5148157;27;1142;-79
2022/06/20 13:27:55;;;;;;;;;;;;;;;;;;5126575;27;1368;-77
2022/06/20 13:30:39;;;;;;;;;;;;;;;;;;5146551;27;1384;-77
2022/06/20 13:33:17;;;;;;;;;;;;;;;;;;5127641;27;1293;-78
2022/06/20 13:35:52;;;;;;;;;;;;;;;;;;5144440;27;1143;-76
2022/06/20 13:38:29;;;;;;;;;;;;;;;;;;5126402;27;1289;-77
2022/06/20 13:41:01;;;;;;;;;;;;;;;;;;5144975;27;1937;-77
2022/06/20 13:43:37;;;;;;;;;;;;;;;;;;5146510;27;1182;-77
2022/06/20 13:46:05;;;;;;;;;;;;;;;;;;5125797;27;1284;-78
2022/06/20 13:48:36;;;;;;;;;;;;;;;;;;5125984;27;1150;-77
2022/06/20 13:51:09;;;;;;;;;;;;;;;;;;5125280;27;1321;-77
2022/06/20 13:53:44;;;;;;;;;;;;;;;;;;5124671;27;1213;-77
2022/06/20 13:56:15;;;;;;;;;;;;;;;;;;5128409;27;1292;-78
2022/06/20 13:58:48;;;;;;;;;;;;;;;;;;5143736;27;1186;-78
2022/06/20 14:01:15;;;;;;;;;;;;;;;;;;5145848;27;1909;-77
2022/06/20 14:03:52;;;;;;;;;;;;;;;;;;5145374;27;1223;-76
2022/06/20 14:06:21;;;;;;;;;;;;;;;;;;5129247;27;1264;-77
2022/06/20 14:08:51;;;;;;;;;;;;;;;;;;5145465;27;1130;-76
2022/06/20 14:11:24;;;;;;;;;;;;;;;;;;5129855;27;1328;-77
2022/06/20 14:13:51;;;;;;;;;;;;;;;;;;5126691;27;1173;-76
2022/06/20 14:16:35;;;;;;;;;;;;;;;;;;5128797;27;1166;-77
2022/06/20 14:19:04;;;;;;;;;;;;;;;;;;5125630;27;1135;-76
2022/06/20 14:21:44;;;;;;;;;;;;;;;;;;5129246;27;1885;-76
2022/06/20 14:24:21;;;;;;;;;;;;;;;;;;5127847;27;1202;-75
2022/06/20 14:26:56;;;;;;;;;;;;;;;;;;5126959;27;1304;-76
2022/06/20 14:29:24;;;;;;;;;;;;;;;;;;5128427;27;1399;-75
2022/06/20 14:31:55;;;;;;;;;;;;;;;;;;5136422;27;1015;-76
2022/06/20 14:34:22;;;;;;;;;;;;;;;;;;5124807;27;1222;-76
2022/06/20 14:36:55;;;;;;;;;;;;;;;;;;5105823;27;1241;-74
2022/06/20 14:39:40;;;;;;;;;;;;;;;;;;5106684;27;1233;-74
2022/06/20 14:42:07;;;;;;;;;;;;;;;;;;5102724;28;1882;-76
2022/06/20 14:44:32;;;;;;;;;;;;;;;;;;5103785;28;1262;-76
2022/06/20 14:47:00;;;;;;;;;;;;;;;;;;5102239;28;1116;-75
2022/06/20 14:49:32;;;;;;;;;;;;;;;;;;5101832;28;1165;-75
2022/06/20 14:52:17;;;;;;;;;;;;;;;;;;5106352;28;1213;-76
2022/06/20 14:54:58;;;;;;;;;;;;;;;;;;5099265;28;1239;-74
2022/06/20 14:57:29;;;;;;;;;;;;;;;;;;5108119;28;1155;-76
2022/06/20 14:59:55;;;;;;;;;;;;;;;;;;5105134;28;1989;-74
2022/06/20 15:02:32;;;;;;;;;;;;;;;;;;5108713;28;1179;-75
2022/06/20 15:05:01;;;;;;;;;;;;;;;;;;5104405;28;1257;-74
2022/06/20 15:07:45;;;;;;;;;;;;;;;;;;5108677;28;1120;-74
2022/06/20 15:10:24;;;;;;;;;;;;;;;;;;5103140;28;1352;-74
2022/06/20 15:12:57;;;;;;;;;;;;;;;;;;5105919;28;1123;-75
2022/06/20 15:15:22;;;;;;;;;;;;;;;;;;5106227;28;1159;-75
2022/06/20 15:18:00;;;;;;;;;;;;;;;;;;5101247;28;1371;-75
2022/06/20 15:20:31;;;;;;;;;;;;;;;;;;5121656;27;1901;-75
2022/06/20 15:23:04;;;;;;;;;;;;;;;;;;5126393;27;1210;-75
2022/06/20 15:25:33;;;;;;;;;;;;;;;;;;5127232;27;1135;-74
2022/06/20 15:28:04;;;;;;;;;;;;;;;;;;5126854;27;1307;-74
2022/06/20 15:30:30;;;;;;;;;;;;;;;;;;5129977;27;1194;-75
2022/06/20 15:32:55;;;;;;;;;;;;;;;;;;5123616;27;1084;-76
2022/06/20 15:38:22;;;;;;;;;;;;;;;;;;5104563;27;1163;-77
2022/06/20 15:40:52;;;;;;;;;;;;;;;;;;5114263;27;1897;-77
2022/06/20 15:43:24;;;;;;;;;;;;;;;;;;5129092;27;1273;-77
2022/06/20 15:45:52;;;;;;;;;;;;;;;;;;5115462;27;1254;-76
2022/06/20 15:48:23;;;;;;;;;;;;;;;;;;5126124;27;1345;-77
2022/06/20 15:50:58;;;;;;;;;;;;;;;;;;5143295;27;1185;-77
2022/06/20 15:53:41;;;;;;;;;;;;;;;;;;5104315;27;1269;-77
2022/06/20 15:56:16;;;;;;;;;;;;;;;;;;5124768;27;1132;-77
2022/06/20 15:59:00;;;;;;;;;;;;;;;;;;5106939;27;1217;-79
2022/06/20 16:01:31;;;;;;;;;;;;;;;;;;5106657;27;1918;-77
2022/06/20 16:04:05;;;;;;;;;;;;;;;;;;5106426;27;1198;-79
2022/06/20 16:06:33;;;;;;;;;;;;;;;;;;5104686;27;1257;-76
2022/06/20 16:09:04;;;;;;;;;;;;;;;;;;5127993;27;1158;-77
2022/06/20 16:11:39;;;;;;;;;;;;;;;;;;5118094;27;1162;-78
2022/06/20 16:14:05;;;;;;;;;;;;;;;;;;5091563;27;1297;-78
2022/06/20 16:16:31;;;;;;;;;;;;;;;;;;5088342;27;1155;-77
2022/06/20 16:19:07;;;;;;;;;;;;;;;;;;5103657;27;1159;-77
2022/06/20 16:21:35;;;;;;;;;;;;;;;;;;5109305;27;1951;-76
2022/06/20 16:24:04;;;;;;;;;;;;;;;;;;5106197;27;1302;-79
2022/06/20 16:26:48;;;;;;;;;;;;;;;;;;5111070;27;1340;-76
2022/06/20 16:29:19;;;;;;;;;;;;;;;;;;5094686;27;1172;-76
2022/06/20 16:31:56;;;;;;;;;;;;;;;;;;5095431;27;1215;-76
2022/06/20 16:34:32;;;;;;;;;;;;;;;;;;5116231;27;1218;-76
2022/06/20 16:37:04;;;;;;;;;;;;;;;;;;5116078;27;1139;-75
2022/06/20 16:39:30;;;;;;;;;;;;;;;;;;5116727;27;1197;-76
2022/06/20 16:42:02;;;;;;;;;;;;;;;;;;5126534;27;2046;-76
2022/06/20 16:44:27;;;;;;;;;;;;;;;;;;5147582;27;1071;-75
2022/06/20 16:46:59;;;;;;;;;;;;;;;;;;5126289;27;1230;-76
2022/06/20 16:49:32;;;;;;;;;;;;;;;;;;5126177;27;1423;-75
2022/06/20 16:52:04;;;;;;;;;;;;;;;;;;5120958;27;1004;-76
2022/06/20 16:54:32;;;;;;;;;;;;;;;;;;5113480;27;1253;-76
2022/06/20 16:57:01;;;;;;;;;;;;;;;;;;5115906;27;1170;-76
2022/06/20 16:59:36;;;;;;;;;;;;;;;;;;5147024;27;1284;-79
2022/06/20 17:02:10;;;;;;;;;;;;;;;;;;5124887;27;1988;-76
2022/06/20 17:04:57;;;;;;;;;;;;;;;;;;5123951;27;1199;-78
2022/06/20 17:07:33;;;;;;;;;;;;;;;;;;5129037;27;1293;-76
2022/06/20 17:10:06;;;;;;;;;;;;;;;;;;5129908;27;1479;-76
2022/06/20 17:12:34;;;;;;;;;;;;;;;;;;5136732;27;1183;-76
2022/06/20 17:15:18;;;;;;;;;;;;;;;;;;5110194;27;1216;-77
2022/06/20 17:17:50;;;;;;;;;;;;;;;;;;5126341;27;1206;-76
2022/06/20 17:20:36;;;;;;;;;;;;;;;;;;5122794;27;1969;-75
2022/06/20 17:23:20;;;;;;;;;;;;;;;;;;5109102;27;1299;-75
2022/06/20 17:25:52;;;;;;;;;;;;;;;;;;5104279;27;1273;-76
2022/06/20 17:28:23;;;;;;;;;;;;;;;;;;5124932;27;1075;-77
2022/06/20 17:30:56;;;;;;;;;;;;;;;;;;5106477;27;1175;-77
2022/06/20 17:33:21;;;;;;;;;;;;;;;;;;5111041;27;1227;-77
2022/06/20 17:35:50;;;;;;;;;;;;;;;;;;5119816;27;1301;-76
2022/06/20 17:38:16;;;;;;;;;;;;;;;;;;5105936;27;1189;-77
2022/06/20 17:40:53;;;;;;;;;;;;;;;;;;5123414;27;1917;-76
2022/06/20 17:43:22;;;;;;;;;;;;;;;;;;5107957;27;1663;-77
2022/06/20 17:46:12;;;;;;;;;;;;;;;;;;5126384;27;1147;-77
2022/06/20 17:48:37;;;;;;;;;;;;;;;;;;5127920;27;1143;-77
2022/06/20 17:51:21;;;;;;;;;;;;;;;;;;5105674;27;1186;-77
2022/06/20 17:53:46;;;;;;;;;;;;;;;;;;5129039;27;1143;-77
2022/06/20 17:56:25;;;;;;;;;;;;;;;;;;5142796;27;1167;-76
2022/06/20 17:58:51;;;;;;;;;;;;;;;;;;5147098;27;1138;-77